Time;durP1;ratioP1;P1;durP2;ratioP2;P2;SDS_P1;SDS_P2;PMS_P1;PMS_P2;Temp;Humidity;BMP_temperature;BMP_pressure;BME280_temperature;BME280_humidity;BME280_pressure;Samples;Min_cycle;Max_cycle;Signal;HPM_P1;HPM_P2
2023/09/04 00:00:33;;;;;;;4.97;3.13;;;15.10;52.90;;;;;;5134002;27;47113;-79
2023/09/04 00:02:58;;;;;;;6.17;3.50;;;15.00;53.90;;;;;;5125729;27;46795;-81
2023/09/04 00:05:24;;;;;;;5.03;2.73;;;15.00;53.90;;;;;;5125953;27;46570;-81
2023/09/04 00:07:49;;;;;;;4.83;3.17;;;15.00;54.00;;;;;;5125885;27;46488;-81
2023/09/04 00:10:15;;;;;;;5.10;3.17;;;15.00;53.00;;;;;;5131424;27;47273;-79
2023/09/04 00:12:41;;;;;;;4.43;3.10;;;15.20;54.10;;;;;;5130762;27;46663;-79
2023/09/04 00:15:06;;;;;;;3.90;2.60;;;14.90;53.80;;;;;;5128045;27;46487;-81
2023/09/04 00:17:33;;;;;;;5.10;3.00;;;14.90;53.90;;;;;;5127594;27;46835;-80
2023/09/04 00:19:58;;;;;;;5.00;2.73;;;14.90;53.90;;;;;;5127346;27;47188;-80
2023/09/04 00:22:24;;;;;;;5.27;3.60;;;14.90;53.00;;;;;;5129230;27;46755;-80
2023/09/04 00:24:49;;;;;;;10.50;3.33;;;14.90;54.00;;;;;;5129148;27;46772;-80
2023/09/04 00:27:15;;;;;;;8.80;3.33;;;14.90;54.10;;;;;;5126688;27;46589;-80
2023/09/04 00:29:41;;;;;;;5.20;3.13;;;14.80;54.10;;;;;;5125067;27;47146;-80
2023/09/04 00:32:07;;;;;;;3.90;2.77;;;14.80;53.30;;;;;;5128303;27;46820;-79
2023/09/04 00:34:32;;;;;;;7.30;2.83;;;14.70;54.30;;;;;;5111014;27;46470;-80
2023/09/04 00:36:58;;;;;;;5.67;2.80;;;14.80;54.80;;;;;;5128681;27;46683;-82
2023/09/04 00:39:24;;;;;;;5.57;2.93;;;14.70;54.70;;;;;;5127048;27;46492;-80
2023/09/04 00:41:50;;;;;;;5.60;3.23;;;14.70;53.80;;;;;;5126488;27;46215;-79
2023/09/04 00:44:17;;;;;;;5.53;3.70;;;14.70;54.60;;;;;;5127934;27;46558;-79
2023/09/04 00:46:44;;;;;;;4.50;3.23;;;14.60;54.70;;;;;;5125557;27;46214;-80
2023/09/04 00:49:11;;;;;;;6.90;4.10;;;14.70;55.10;;;;;;5110792;27;47104;-80
2023/09/04 00:51:38;;;;;;;6.27;3.90;;;14.70;54.90;;;;;;5126654;27;46485;-81
2023/09/04 00:54:04;;;;;;;6.37;3.97;;;14.70;55.50;;;;;;5127590;27;46393;-79
2023/09/04 00:56:30;;;;;;;12.07;4.07;;;14.80;55.30;;;;;;5129691;27;47332;-80
2023/09/04 00:58:56;;;;;;;7.30;3.40;;;14.70;55.10;;;;;;5126087;27;46649;-79
2023/09/04 01:01:22;;;;;;;7.80;3.50;;;14.80;54.30;;;;;;5127401;27;46909;-80
2023/09/04 01:03:47;;;;;;;5.93;3.17;;;14.80;55.10;;;;;;5127759;27;46546;-81
2023/09/04 01:06:13;;;;;;;5.10;2.90;;;14.90;55.00;;;;;;5126802;27;46414;-81
2023/09/04 01:08:39;;;;;;;5.63;3.00;;;14.90;53.90;;;;;;5124620;27;47901;-80
2023/09/04 01:11:23;;;;;;;5.30;3.37;;;14.80;54.10;;;;;;5127819;27;45860;-79
2023/09/04 01:13:54;;;;;;;4.37;2.93;;;14.60;55.00;;;;;;5128483;27;47342;-78
2023/09/04 01:16:22;;;;;;;4.60;3.07;;;14.80;55.10;;;;;;5126989;27;46463;-82
2023/09/04 01:18:48;;;;;;;9.03;3.00;;;14.70;55.40;;;;;;5127320;27;46543;-81
2023/09/04 01:21:14;;;;;;;4.90;3.00;;;14.60;54.80;;;;;;5129214;27;46660;-81
2023/09/04 01:23:40;;;;;;;4.93;2.60;;;14.60;56.00;;;;;;5130914;27;46629;-80
2023/09/04 01:26:12;;;;;;;6.63;2.53;;;14.60;55.90;;;;;;5128878;27;46638;-81
2023/09/04 01:29:07;;;;;;;4.63;2.60;;;14.60;55.90;;;;;;5129362;27;46612;-78
2023/09/04 01:31:40;;;;;;;3.60;2.63;;;14.50;54.70;;;;;;5131433;27;46124;-82
2023/09/04 01:34:11;;;;;;;4.00;2.83;;;14.50;55.80;;;;;;5131193;27;46432;-82
2023/09/04 01:36:38;;;;;;;5.27;3.00;;;14.50;55.80;;;;;;5130605;27;47526;-79
2023/09/04 01:39:04;;;;;;;5.00;3.30;;;14.50;55.80;;;;;;5127158;27;46663;-81
2023/09/04 01:41:29;;;;;;;5.40;3.03;;;14.50;54.70;;;;;;5126384;27;46740;-81
2023/09/04 01:43:55;;;;;;;4.83;3.20;;;14.50;55.80;;;;;;5125557;27;46449;-80
2023/09/04 01:46:21;;;;;;;6.17;4.23;;;14.60;55.90;;;;;;5130281;27;46614;-80
2023/09/04 01:48:50;;;;;;;6.63;4.47;;;14.60;55.90;;;;;;5125740;27;47794;-81
2023/09/04 01:51:16;;;;;;;11.90;5.43;;;14.60;54.80;;;;;;5126391;27;46538;-78
2023/09/04 01:53:44;;;;;;;6.03;4.57;;;14.50;55.80;;;;;;5127848;27;46814;-82
2023/09/04 01:56:10;;;;;;;8.97;4.10;;;14.50;56.80;;;;;;5126169;27;45971;-82
2023/09/04 01:58:35;;;;;;;7.50;4.97;;;14.60;57.40;;;;;;5110001;27;48043;-79
2023/09/04 02:01:01;;;;;;;12.43;4.17;;;14.60;56.50;;;;;;5125859;27;46492;-80
2023/09/04 02:03:26;;;;;;;7.10;4.80;;;14.60;57.30;;;;;;5128203;27;46443;-80
2023/09/04 02:05:52;;;;;;;7.93;5.70;;;14.60;57.30;;;;;;5127237;27;46845;-81
2023/09/04 02:08:19;;;;;;;9.27;5.90;;;14.60;57.50;;;;;;5127179;27;46735;-82
2023/09/04 02:10:47;;;;;;;11.43;4.20;;;14.60;57.30;;;;;;5107897;27;46557;-79
2023/09/04 02:13:13;;;;;;;8.63;5.63;;;14.60;58.30;;;;;;5127543;27;46604;-81
2023/09/04 02:15:39;;;;;;;7.83;5.70;;;14.60;58.40;;;;;;5127227;27;46656;-81
2023/09/04 02:18:04;;;;;;;6.97;5.07;;;14.60;58.80;;;;;;5110739;27;48213;-80
2023/09/04 02:20:30;;;;;;;7.20;3.50;;;14.50;58.40;;;;;;5129851;27;46423;-80
2023/09/04 02:22:57;;;;;;;5.80;3.97;;;14.60;59.40;;;;;;5127601;27;46920;-80
2023/09/04 02:25:23;;;;;;;6.20;3.37;;;14.50;59.40;;;;;;5131473;27;46418;-80
2023/09/04 02:27:49;;;;;;;5.37;3.37;;;14.40;59.40;;;;;;5130729;27;47321;-81
2023/09/04 02:30:15;;;;;;;4.27;2.37;;;14.30;58.40;;;;;;5129412;27;46590;-80
2023/09/04 02:32:41;;;;;;;4.67;2.70;;;14.30;59.40;;;;;;5132893;27;46538;-82
2023/09/04 02:35:07;;;;;;;5.97;3.03;;;14.20;59.50;;;;;;5131079;27;46601;-79
2023/09/04 02:37:32;;;;;;;5.50;3.40;;;14.20;59.60;;;;;;5113292;27;48259;-80
2023/09/04 02:39:58;;;;;;;7.40;3.97;;;14.10;59.70;;;;;;5128285;27;46905;-80
2023/09/04 02:42:23;;;;;;;4.53;3.10;;;14.10;58.80;;;;;;5131813;27;46629;-81
2023/09/04 02:44:49;;;;;;;4.67;2.63;;;14.10;60.00;;;;;;5130758;27;46469;-81
2023/09/04 02:47:14;;;;;;;9.00;2.97;;;14.00;60.00;;;;;;5130245;27;47071;-81
2023/09/04 02:49:40;;;;;;;5.87;3.10;;;14.00;60.00;;;;;;5129282;27;46509;-81
2023/09/04 02:52:05;;;;;;;4.17;2.97;;;13.90;58.90;;;;;;5128472;27;46182;-82
2023/09/04 02:54:31;;;;;;;4.37;3.17;;;13.90;60.00;;;;;;5133379;27;46429;-80
2023/09/04 02:56:57;;;;;;;11.10;4.27;;;13.80;60.00;;;;;;5131446;27;48463;-80
2023/09/04 02:59:24;;;;;;;7.40;3.30;;;13.80;60.00;;;;;;5131228;27;46557;-79
2023/09/04 03:01:50;;;;;;;6.10;4.00;;;13.70;60.20;;;;;;5130924;27;46823;-79
2023/09/04 03:04:16;;;;;;;3.90;2.80;;;13.70;60.30;;;;;;5131044;27;46701;-80
2023/09/04 03:06:42;;;;;;;6.60;3.00;;;13.70;60.30;;;;;;5132956;27;46984;-80
2023/09/04 03:09:08;;;;;;;6.97;3.47;;;13.70;60.40;;;;;;5134116;27;45874;-80
2023/09/04 03:11:34;;;;;;;6.63;3.80;;;13.70;59.50;;;;;;5132357;27;46831;-80
2023/09/04 03:13:59;;;;;;;5.30;3.70;;;13.70;60.30;;;;;;5135074;27;46611;-82
2023/09/04 03:16:25;;;;;;;7.63;4.03;;;13.70;60.40;;;;;;5130928;27;47518;-80
2023/09/04 03:18:51;;;;;;;5.17;3.70;;;13.70;60.40;;;;;;5107992;27;46074;-79
2023/09/04 03:21:16;;;;;;;5.90;4.37;;;13.70;60.50;;;;;;5129864;27;46325;-80
2023/09/04 03:23:42;;;;;;;6.30;4.40;;;13.70;60.50;;;;;;5132211;27;46495;-81
2023/09/04 03:26:07;;;;;;;6.20;4.70;;;13.70;60.60;;;;;;5128752;27;46812;-81
2023/09/04 03:28:33;;;;;;;9.40;6.70;;;13.70;60.60;;;;;;5128965;27;46755;-79
2023/09/04 03:30:59;;;;;;;8.00;5.63;;;13.70;60.50;;;;;;5129419;27;46730;-78
2023/09/04 03:33:24;;;;;;;11.83;6.97;;;13.70;60.80;;;;;;5130577;27;46591;-80
2023/09/04 03:35:50;;;;;;;14.20;5.10;;;13.70;60.90;;;;;;5132610;27;47539;-79
2023/09/04 03:38:16;;;;;;;10.57;7.00;;;13.70;61.00;;;;;;5132017;27;46813;-79
2023/09/04 03:40:42;;;;;;;9.00;6.47;;;13.70;61.00;;;;;;5130119;27;46485;-79
2023/09/04 03:43:07;;;;;;;13.10;8.50;;;13.70;61.20;;;;;;5131657;27;46465;-78
2023/09/04 03:45:34;;;;;;;11.80;7.67;;;13.70;61.80;;;;;;5130718;27;46534;-80
2023/09/04 03:48:01;;;;;;;11.80;8.60;;;13.70;62.30;;;;;;5131778;27;46489;-80
2023/09/04 03:50:27;;;;;;;13.20;9.83;;;13.80;61.80;;;;;;5129559;27;46854;-80
2023/09/04 03:52:53;;;;;;;11.53;7.67;;;13.80;62.70;;;;;;5132404;27;46799;-79
2023/09/04 03:55:18;;;;;;;15.70;9.07;;;13.80;62.80;;;;;;5129586;27;46699;-79
2023/09/04 03:57:46;;;;;;;16.10;8.53;;;13.80;62.80;;;;;;5128417;27;47101;-79
2023/09/04 04:00:19;;;;;;;13.80;8.43;;;13.80;61.90;;;;;;5126708;27;46565;-80
2023/09/04 04:02:48;;;;;;;13.23;8.83;;;13.80;62.90;;;;;;5131157;27;46534;-78
2023/09/04 04:05:15;;;;;;;11.13;7.83;;;13.80;63.10;;;;;;5126987;27;46605;-78
2023/09/04 04:07:41;;;;;;;14.27;9.10;;;13.80;63.40;;;;;;5129971;27;46724;-79
2023/09/04 04:10:08;;;;;;;12.40;9.03;;;;;;;;;;5128749;27;46384;-79
2023/09/04 04:12:34;;;;;;;15.57;8.87;;;13.80;62.50;;;;;;5134381;27;46551;-78
2023/09/04 04:15:04;;;;;;;15.10;8.40;;;13.90;63.80;;;;;;5129006;27;48086;-78
2023/09/04 04:17:30;;;;;;;12.47;9.50;;;13.90;63.80;;;;;;5128577;27;46425;-79
2023/09/04 04:19:56;;;;;;;11.90;8.87;;;13.90;64.10;;;;;;5128638;27;46755;-80
2023/09/04 04:22:22;;;;;;;14.60;9.43;;;13.90;63.00;;;;;;5129193;27;46708;-79
2023/09/04 04:24:48;;;;;;;16.13;10.03;;;14.10;64.40;;;;;;5129648;27;46499;-78
2023/09/04 04:27:15;;;;;;;15.40;8.20;;;13.90;64.30;;;;;;5128713;27;46839;-80
2023/09/04 04:29:43;;;;;;;13.10;9.37;;;13.90;65.70;;;;;;5130027;27;46526;-79
2023/09/04 04:32:09;;;;;;;14.83;7.90;;;13.90;63.60;;;;;;5130870;27;46945;-80
2023/09/04 04:34:35;;;;;;;12.97;8.73;;;13.90;64.70;;;;;;5133190;27;46902;-82
2023/09/04 04:37:00;;;;;;;11.73;8.73;;;14.00;64.70;;;;;;5129089;27;46493;-80
2023/09/04 04:39:26;;;;;;;12.00;8.70;;;13.90;64.90;;;;;;5131849;27;45876;-80
2023/09/04 04:41:53;;;;;;;13.97;9.73;;;13.90;64.70;;;;;;5129815;27;46501;-80
2023/09/04 04:44:18;;;;;;;12.63;9.07;;;13.80;64.70;;;;;;5131528;27;47239;-79
2023/09/04 04:46:47;;;;;;;14.43;9.00;;;13.90;65.10;;;;;;5132854;27;46473;-81
2023/09/04 04:49:15;;;;;;;40.87;10.70;;;13.90;65.50;;;;;;5111840;27;46521;-80
2023/09/04 04:51:41;;;;;;;12.33;9.50;;;14.00;64.50;;;;;;5131535;27;46935;-80
2023/09/04 04:54:07;;;;;;;12.90;9.37;;;14.00;65.40;;;;;;5127379;27;46429;-79
2023/09/04 04:56:32;;;;;;;13.00;9.10;;;14.10;65.30;;;;;;5129905;27;46397;-80
2023/09/04 04:58:58;;;;;;;14.10;8.33;;;14.20;65.30;;;;;;5125241;27;46696;-80
2023/09/04 05:01:23;;;;;;;12.40;8.33;;;14.20;65.00;;;;;;5133393;27;45880;-77
2023/09/04 05:03:49;;;;;;;17.20;9.40;;;14.30;64.80;;;;;;5130581;27;46502;-80
2023/09/04 05:06:14;;;;;;;13.47;8.43;;;14.30;64.90;;;;;;5128317;27;46514;-79
2023/09/04 05:08:40;;;;;;;14.23;8.33;;;14.20;65.10;;;;;;5129798;27;46837;-78
2023/09/04 05:11:05;;;;;;;18.00;8.43;;;14.30;65.10;;;;;;5125113;27;46422;-80
2023/09/04 05:13:32;;;;;;;12.23;7.50;;;14.40;64.90;;;;;;5111577;27;47714;-81
2023/09/04 05:16:03;;;;;;;11.77;7.53;;;14.50;64.70;;;;;;5126684;27;46636;-79
2023/09/04 05:18:29;;;;;;;11.50;7.50;;;14.60;64.60;;;;;;5126463;27;46584;-80
2023/09/04 05:20:55;;;;;;;10.40;7.80;;;14.70;64.60;;;;;;5127777;27;46468;-80
2023/09/04 05:23:21;;;;;;;11.10;8.10;;;14.80;64.70;;;;;;5125398;27;46511;-81
2023/09/04 05:25:50;;;;;;;9.93;6.43;;;14.80;64.30;;;;;;5127384;27;46638;-80
2023/09/04 05:28:16;;;;;;;9.90;6.40;;;15.30;63.80;;;;;;5126772;27;46480;-79
2023/09/04 05:30:41;;;;;;;7.73;6.00;;;16.30;63.80;;;;;;5129462;27;46645;-80
2023/09/04 05:33:07;;;;;;;7.40;5.83;;;16.40;64.90;;;;;;5127076;27;46425;-80
2023/09/04 05:35:32;;;;;;;6.10;4.80;;;17.20;64.90;;;;;;5129338;27;45947;-79
2023/09/04 05:37:58;;;;;;;11.80;6.30;;;17.10;64.40;;;;;;5126732;27;45998;-79
2023/09/04 05:40:24;;;;;;;8.80;5.37;;;18.00;61.30;;;;;;5119706;27;46842;-81
2023/09/04 05:42:51;;;;;;;7.30;5.10;;;18.30;62.50;;;;;;5128507;27;46719;-82
2023/09/04 05:45:17;;;;;;;6.90;5.13;;;18.50;61.30;;;;;;5110845;27;46474;-81
2023/09/04 05:47:43;;;;;;;6.57;5.47;;;18.80;60.00;;;;;;5127189;27;46541;-80
2023/09/04 05:50:10;;;;;;;9.00;4.70;;;19.20;59.90;;;;;;5127848;27;46272;-81
2023/09/04 05:52:36;;;;;;;9.07;5.07;;;19.50;58.60;;;;;;5127826;27;46692;-78
2023/09/04 05:55:02;;;;;;;12.63;5.40;;;19.80;57.10;;;;;;5137583;27;46353;-79
2023/09/04 05:57:28;;;;;;;6.70;5.20;;;19.70;56.30;;;;;;5139880;27;46509;-80
2023/09/04 05:59:53;;;;;;;7.30;4.70;;;19.80;53.50;;;;;;5137633;27;46615;-81
2023/09/04 06:02:19;;;;;;;7.60;5.10;;;19.90;50.50;;;;;;5138228;27;46565;-78
2023/09/04 06:04:45;;;;;;;6.20;4.80;;;20.00;48.40;;;;;;5130215;27;46397;-76
2023/09/04 06:07:10;;;;;;;9.90;5.07;;;19.90;47.60;;;;;;5114510;27;47047;-80
2023/09/04 06:09:40;;;;;;;9.97;5.60;;;19.70;45.00;;;;;;5132461;27;46451;-81
2023/09/04 06:12:08;;;;;;;9.93;5.83;;;18.80;45.50;;;;;;5131137;27;46033;-83
2023/09/04 06:14:34;;;;;;;11.97;5.97;;;18.30;47.90;;;;;;5130977;27;46550;-79
2023/09/04 06:17:00;;;;;;;8.27;5.97;;;17.90;49.30;;;;;;5129027;27;46538;-79
2023/09/04 06:19:25;;;;;;;12.37;6.60;;;17.70;50.50;;;;;;5123810;27;46900;-80
2023/09/04 06:21:51;;;;;;;8.10;4.90;;;17.70;51.20;;;;;;5125771;27;47247;-80
2023/09/04 06:24:16;;;;;;;8.97;5.50;;;18.00;51.10;;;;;;5126331;27;46509;-81
2023/09/04 06:26:42;;;;;;;9.00;5.60;;;18.70;46.50;;;;;;5107446;27;47061;-82
2023/09/04 06:29:07;;;;;;;12.40;5.70;;;18.80;44.40;;;;;;5121875;27;46877;-79
2023/09/04 06:31:33;;;;;;;10.00;6.77;;;18.30;46.10;;;;;;5125044;27;46925;-80
2023/09/04 06:33:59;;;;;;;12.07;6.97;;;17.80;46.90;;;;;;5129365;27;46629;-79
2023/09/04 06:36:24;;;;;;;8.37;6.57;;;17.60;48.10;;;;;;5125494;27;46357;-81
2023/09/04 06:38:51;;;;;;;12.40;6.80;;;17.60;48.50;;;;;;5125878;27;46390;-81
2023/09/04 06:41:16;;;;;;;11.60;6.60;;;17.80;48.50;;;;;;5105625;27;47656;-78
2023/09/04 06:43:42;;;;;;;11.70;6.93;;;18.00;48.80;;;;;;5123822;27;46494;-79
2023/09/04 06:46:08;;;;;;;8.90;6.33;;;17.70;48.80;;;;;;5127628;27;46221;-80
2023/09/04 06:48:33;;;;;;;12.57;6.33;;;17.90;49.10;;;;;;5127921;27;46521;-79
2023/09/04 06:51:00;;;;;;;13.80;7.03;;;18.20;49.40;;;;;;5128330;27;46997;-80
2023/09/04 06:53:26;;;;;;;11.33;6.80;;;17.90;49.10;;;;;;5127386;27;46531;-79
2023/09/04 06:55:52;;;;;;;8.70;6.60;;;18.10;48.80;;;;;;5128174;27;46627;-80
2023/09/04 06:58:17;;;;;;;9.67;6.10;;;18.30;48.10;;;;;;5107665;27;46811;-80
2023/09/04 07:00:43;;;;;;;10.93;6.47;;;18.50;47.80;;;;;;5126290;27;46417;-77
2023/09/04 07:03:09;;;;;;;9.50;6.50;;;18.80;47.60;;;;;;5135294;27;46365;-78
2023/09/04 07:05:34;;;;;;;14.60;7.47;;;18.70;47.30;;;;;;5127846;27;46771;-79
2023/09/04 07:08:00;;;;;;;9.50;6.80;;;18.90;47.40;;;;;;5129531;27;46990;-82
2023/09/04 07:10:26;;;;;;;8.37;6.30;;;18.90;46.40;;;;;;5130593;27;46450;-80
2023/09/04 07:12:51;;;;;;;9.80;6.20;;;18.90;47.40;;;;;;5130609;27;46443;-81
2023/09/04 07:15:17;;;;;;;8.17;6.30;;;19.00;46.80;;;;;;5130565;27;46712;-80
2023/09/04 07:17:43;;;;;;;12.00;6.30;;;19.10;46.80;;;;;;5132289;27;47021;-79
2023/09/04 07:20:10;;;;;;;11.20;6.80;;;19.50;47.20;;;;;;5129212;27;46460;-79
2023/09/04 07:22:36;;;;;;;15.67;6.40;;;19.30;45.90;;;;;;5129310;27;46538;-79
2023/09/04 07:25:03;;;;;;;11.00;6.90;;;19.40;47.10;;;;;;5129713;27;46445;-81
2023/09/04 07:27:30;;;;;;;8.77;5.93;;;19.50;47.20;;;;;;5129020;27;46441;-78
2023/09/04 07:29:56;;;;;;;9.27;6.60;;;19.50;47.20;;;;;;5134630;27;47234;-81
2023/09/04 07:32:21;;;;;;;10.80;7.10;;;19.60;45.50;;;;;;5127611;27;45899;-78
2023/09/04 07:34:47;;;;;;;8.60;7.00;;;20.20;47.20;;;;;;5132184;27;46850;-79
2023/09/04 07:37:13;;;;;;;10.77;6.80;;;19.90;46.60;;;;;;5129870;27;47156;-82
2023/09/04 07:39:39;;;;;;;10.23;6.47;;;19.30;47.00;;;;;;5111866;27;49092;-80
2023/09/04 07:42:05;;;;;;;11.47;6.40;;;19.20;46.10;;;;;;5129234;27;46762;-79
2023/09/04 07:44:31;;;;;;;12.13;6.33;;;19.50;47.20;;;;;;5127857;27;46603;-81
2023/09/04 07:46:57;;;;;;;11.47;7.23;;;19.50;47.20;;;;;;5129825;27;46387;-79
2023/09/04 07:49:23;;;;;;;13.00;7.10;;;19.70;47.30;;;;;;5127631;27;46869;-81
2023/09/04 07:51:49;;;;;;;12.47;7.83;;;19.70;45.80;;;;;;5129273;27;46456;-78
2023/09/04 07:54:14;;;;;;;8.80;6.50;;;19.70;46.80;;;;;;5127377;27;46537;-81
2023/09/04 07:56:40;;;;;;;9.20;6.80;;;19.60;47.20;;;;;;5121602;27;46860;-82
2023/09/04 07:59:05;;;;;;;9.20;6.80;;;19.80;47.10;;;;;;5103999;27;48375;-77
2023/09/04 08:01:34;;;;;;;9.60;6.47;;;20.00;45.20;;;;;;5112826;27;46706;-81
2023/09/04 08:04:01;;;;;;;10.53;5.90;;;20.00;46.10;;;;;;5130204;27;46769;-81
2023/09/04 08:06:27;;;;;;;8.53;5.03;;;20.20;46.00;;;;;;5127317;27;46582;-80
2023/09/04 08:08:52;;;;;;;11.70;6.20;;;20.20;45.40;;;;;;5126813;27;47271;-80
2023/09/04 08:11:18;;;;;;;8.10;5.77;;;20.40;45.30;;;;;;5128355;27;46500;-81
2023/09/04 08:13:44;;;;;;;8.00;6.00;;;20.50;44.80;;;;;;5130946;27;46507;-81
2023/09/04 08:16:09;;;;;;;12.40;6.33;;;20.70;44.20;;;;;;5128414;27;46399;-81
2023/09/04 08:18:35;;;;;;;10.30;4.80;;;20.90;43.80;;;;;;5130879;27;46360;-80
2023/09/04 08:21:01;;;;;;;7.20;4.87;;;20.80;42.70;;;;;;5127412;27;46705;-82
2023/09/04 08:23:27;;;;;;;8.97;5.23;;;21.30;43.00;;;;;;5129864;27;46475;-78
2023/09/04 08:25:59;;;;;;;8.17;4.90;;;20.90;42.40;;;;;;5128378;27;46471;-79
2023/09/04 08:28:26;;;;;;;9.30;4.83;;;20.90;41.90;;;;;;5129682;27;46148;-82
2023/09/04 08:30:51;;;;;;;10.00;6.00;;;21.40;41.60;;;;;;5111319;27;46362;-81
2023/09/04 08:33:17;;;;;;;8.33;5.00;;;21.00;41.10;;;;;;5128299;27;46506;-78
2023/09/04 08:35:43;;;;;;;8.20;5.10;;;21.00;40.60;;;;;;5130759;27;46571;-80
2023/09/04 08:38:08;;;;;;;6.97;4.60;;;21.10;40.80;;;;;;5131039;27;47267;-80
2023/09/04 08:40:36;;;;;;;8.90;5.17;;;21.10;40.20;;;;;;5129116;27;46494;-81
2023/09/04 08:43:03;;;;;;;11.50;4.50;;;21.30;40.20;;;;;;5134539;27;46442;-80
2023/09/04 08:45:30;;;;;;;8.10;4.17;;;21.30;39.20;;;;;;5128526;27;46876;-80
2023/09/04 08:47:57;;;;;;;7.37;4.80;;;21.30;39.00;;;;;;5129330;27;46662;-79
2023/09/04 08:50:23;;;;;;;6.97;3.57;;;21.50;37.50;;;;;;5128182;27;46488;-79
2023/09/04 08:52:50;;;;;;;6.17;3.93;;;21.50;38.60;;;;;;5114294;27;46528;-79
2023/09/04 08:55:19;;;;;;;6.87;4.63;;;22.10;38.10;;;;;;5129581;27;46476;-78
2023/09/04 08:57:45;;;;;;;7.43;3.90;;;21.80;37.00;;;;;;5129913;27;47348;-79
2023/09/04 09:00:11;;;;;;;9.00;4.17;;;22.00;36.50;;;;;;5129761;27;46513;-77
2023/09/04 09:02:39;;;;;;;9.77;4.57;;;22.00;34.80;;;;;;5116000;27;46090;-78
2023/09/04 09:05:07;;;;;;;5.77;3.50;;;22.10;36.00;;;;;;5130568;27;46421;-78
2023/09/04 09:07:34;;;;;;;12.80;4.23;;;22.00;35.60;;;;;;5109376;27;47231;-79
2023/09/04 09:10:03;;;;;;;7.60;4.17;;;22.00;35.80;;;;;;5129575;27;46111;-79
2023/09/04 09:12:29;;;;;;;10.37;4.60;;;22.00;33.80;;;;;;5128829;27;45944;-80
2023/09/04 09:14:58;;;;;;;6.80;4.27;;;22.10;34.90;;;;;;5129565;27;46514;-81
2023/09/04 09:17:24;;;;;;;5.53;4.07;;;22.60;35.40;;;;;;5128377;27;45983;-79
2023/09/04 09:19:49;;;;;;;6.87;4.30;;;22.10;34.60;;;;;;5111219;27;46728;-79
2023/09/04 09:22:17;;;;;;;5.87;3.90;;;22.20;33.40;;;;;;5127670;27;46890;-75
2023/09/04 09:24:53;;;;;;;6.70;3.40;;;22.10;34.80;;;;;;5129321;27;46801;-79
2023/09/04 09:27:20;;;;;;;8.10;4.03;;;22.30;34.50;;;;;;5104890;27;47710;-80
2023/09/04 09:29:47;;;;;;;13.13;4.10;;;22.80;33.90;;;;;;5120277;27;46496;-80
2023/09/04 09:32:15;;;;;;;6.20;3.87;;;22.50;31.70;;;;;;5127903;27;46557;-80
2023/09/04 09:34:41;;;;;;;6.83;4.20;;;22.60;33.10;;;;;;5128171;27;46561;-80
2023/09/04 09:37:07;;;;;;;7.90;4.37;;;22.70;32.50;;;;;;5127382;27;46432;-82
2023/09/04 09:39:34;;;;;;;9.60;4.33;;;22.70;32.60;;;;;;5126005;27;46692;-80
2023/09/04 09:42:01;;;;;;;8.83;4.30;;;22.80;32.30;;;;;;5129694;27;47025;-79
2023/09/04 09:44:33;;;;;;;6.90;4.10;;;22.80;31.90;;;;;;5131219;27;46498;-78
2023/09/04 09:46:59;;;;;;;7.07;4.30;;;23.00;31.20;;;;;;5129332;27;46509;-80
2023/09/04 09:49:25;;;;;;;5.13;3.40;;;22.90;30.90;;;;;;5130308;27;46513;-80
2023/09/04 09:51:53;;;;;;;6.70;4.50;;;22.90;29.60;;;;;;5129466;27;45916;-80
2023/09/04 09:54:35;;;;;;;11.53;3.90;;;23.10;30.40;;;;;;5129119;27;46432;-77
2023/09/04 09:57:01;;;;;;;6.33;3.67;;;23.00;29.40;;;;;;5132783;27;46938;-78
2023/09/04 09:59:32;;;;;;;6.83;3.50;;;23.00;28.50;;;;;;5127508;27;46417;-80
2023/09/04 10:01:58;;;;;;;9.23;3.80;;;22.90;28.40;;;;;;5126682;27;46795;-79
2023/09/04 10:04:25;;;;;;;7.10;3.87;;;22.90;27.90;;;;;;5124527;27;46917;-81
2023/09/04 10:06:54;;;;;;;6.10;4.03;;;22.90;27.80;;;;;;5126551;27;47025;-81
2023/09/04 10:09:22;;;;;;;8.30;3.33;;;22.90;27.60;;;;;;5126078;27;46440;-79
2023/09/04 10:11:57;;;;;;;8.20;3.73;;;23.00;27.70;;;;;;5127551;27;46748;-79
2023/09/04 10:14:31;;;;;;;7.93;3.77;;;23.50;27.30;;;;;;5127480;27;46686;-79
2023/09/04 10:17:00;;;;;;;9.40;4.30;;;23.30;27.50;;;;;;5128029;27;46682;-81
2023/09/04 10:19:30;;;;;;;11.43;3.70;;;23.20;26.30;;;;;;5130377;27;46905;-79
2023/09/04 10:22:04;;;;;;;6.83;3.37;;;23.30;25.70;;;;;;5129274;27;46830;-80
2023/09/04 10:24:41;;;;;;;9.60;4.17;;;23.40;26.30;;;;;;5131637;27;46459;-85
2023/09/04 10:27:09;;;;;;;7.10;3.33;;;23.50;25.50;;;;;;5131936;27;46413;-76
2023/09/04 10:29:41;;;;;;;5.30;2.67;;;23.40;25.60;;;;;;5129663;27;46714;-81
2023/09/04 10:32:08;;;;;;;4.90;3.10;;;23.50;24.50;;;;;;5129542;27;46590;-80
2023/09/04 10:34:34;;;;;;;4.47;2.63;;;23.60;25.40;;;;;;5126077;27;46626;-82
2023/09/04 10:37:00;;;;;;;9.13;3.00;;;23.80;25.10;;;;;;5123797;27;46711;-81
2023/09/04 10:39:26;;;;;;;7.03;3.03;;;23.80;25.10;;;;;;5128469;27;46510;-83
2023/09/04 10:41:52;;;;;;;8.50;3.17;;;23.80;24.20;;;;;;5129258;27;46523;-76
2023/09/04 10:44:51;;;;;;;5.40;3.17;;;23.80;24.10;;;;;;5132547;27;46853;-78
2023/09/04 10:47:18;;;;;;;4.17;2.70;;;23.80;23.60;;;;;;5118970;27;47069;-76
2023/09/04 10:49:44;;;;;;;4.87;3.10;;;23.80;23.60;;;;;;5132211;27;46807;-79
2023/09/04 10:52:11;;;;;;;5.80;2.90;;;23.90;22.30;;;;;;5130984;27;46432;-82
2023/09/04 10:54:38;;;;;;;6.50;2.83;;;23.90;22.60;;;;;;5130760;27;46850;-80
2023/09/04 10:57:07;;;;;;;6.83;3.07;;;23.90;22.10;;;;;;5132669;27;47576;-81
2023/09/04 10:59:52;;;;;;;5.33;3.00;;;23.90;22.00;;;;;;5131178;27;46336;-80
2023/09/04 11:02:29;;;;;;;8.10;3.50;;;24.00;21.50;;;;;;5129227;27;46443;-80
2023/09/04 11:04:56;;;;;;;6.30;2.97;;;23.90;22.10;;;;;;5131409;27;46516;-83
2023/09/04 11:07:21;;;;;;;5.87;3.33;;;24.00;21.90;;;;;;5130510;27;47264;-81
2023/09/04 11:10:07;;;;;;;8.57;2.90;;;24.10;20.30;;;;;;5131703;27;46821;-84
2023/09/04 11:12:35;;;;;;;5.57;3.10;;;24.10;19.90;;;;;;5113300;27;47020;-82
2023/09/04 11:15:01;;;;;;;4.23;3.10;;;24.30;20.80;;;;;;5131164;27;46469;-79
2023/09/04 11:17:27;;;;;;;5.13;3.10;;;24.20;20.50;;;;;;5129200;27;46757;-80
2023/09/04 11:19:53;;;;;;;4.80;3.07;;;24.10;20.70;;;;;;5133456;27;46369;-80
2023/09/04 11:22:26;;;;;;;5.33;2.93;;;24.20;20.00;;;;;;5113621;27;46612;-79
2023/09/04 11:24:54;;;;;;;5.00;2.93;;;24.30;20.50;;;;;;5130790;27;46473;-79
2023/09/04 11:27:24;;;;;;;4.60;2.90;;;24.30;20.20;;;;;;5129848;27;47359;-79
2023/09/04 11:29:50;;;;;;;8.07;2.77;;;24.20;20.10;;;;;;5129333;27;46574;-79
2023/09/04 11:32:17;;;;;;;7.80;2.83;;;24.30;19.10;;;;;;5113428;27;46500;-80
2023/09/04 11:34:49;;;;;;;5.67;2.57;;;24.30;19.90;;;;;;5127363;27;46435;-80
2023/09/04 11:37:15;;;;;;;4.20;2.80;;;24.50;19.70;;;;;;5128997;27;46898;-81
2023/09/04 11:39:55;;;;;;;4.70;2.70;;;24.40;20.10;;;;;;5130614;27;46406;-79
2023/09/04 11:42:22;;;;;;;7.27;2.90;;;24.40;18.30;;;;;;5130453;27;46471;-80
2023/09/04 11:44:49;;;;;;;5.87;3.60;;;24.50;19.20;;;;;;5128620;27;46772;-80
2023/09/04 11:47:18;;;;;;;4.10;2.80;;;24.40;19.50;;;;;;5128171;27;47501;-82
2023/09/04 11:49:45;;;;;;;5.07;2.87;;;24.50;19.50;;;;;;5132330;27;46437;-80
2023/09/04 11:52:14;;;;;;;6.00;2.83;;;24.70;17.90;;;;;;5128559;27;46797;-81
2023/09/04 11:54:40;;;;;;;4.63;2.80;;;24.70;19.50;;;;;;5130353;27;47302;-78
2023/09/04 11:57:07;;;;;;;6.37;3.07;;;24.80;18.80;;;;;;5128263;27;46695;-77
2023/09/04 11:59:36;;;;;;;6.43;3.20;;;24.90;18.80;;;;;;5128405;27;46476;-80
2023/09/04 12:02:03;;;;;;;6.90;2.80;;;24.80;18.00;;;;;;5128815;27;46924;-81
2023/09/04 12:04:32;;;;;;;7.20;2.87;;;24.80;18.20;;;;;;5127857;27;46427;-80
2023/09/04 12:07:03;;;;;;;4.90;2.90;;;24.80;18.00;;;;;;5131721;27;46941;-80
2023/09/04 12:09:29;;;;;;;5.40;3.33;;;24.80;17.50;;;;;;5113791;27;46586;-82
2023/09/04 12:11:55;;;;;;;5.00;3.33;;;24.70;17.50;;;;;;5129409;27;46519;-82
2023/09/04 12:14:21;;;;;;;11.57;3.03;;;24.90;17.70;;;;;;5128301;27;46743;-80
2023/09/04 12:16:46;;;;;;;5.30;2.60;;;24.80;16.80;;;;;;5126706;27;47599;-80
2023/09/04 12:19:15;;;;;;;5.87;2.90;;;25.00;17.10;;;;;;5127471;27;47299;-80
2023/09/04 12:21:40;;;;;;;5.20;2.90;;;24.90;16.70;;;;;;5126387;27;46502;-79
2023/09/04 12:24:14;;;;;;;6.57;2.97;;;24.90;16.50;;;;;;5130909;27;46501;-83
2023/09/04 12:26:40;;;;;;;4.93;3.40;;;24.80;16.20;;;;;;5125573;27;47031;-79
2023/09/04 12:29:08;;;;;;;7.10;2.73;;;24.80;16.30;;;;;;5127560;27;47256;-78
2023/09/04 12:31:34;;;;;;;4.83;2.93;;;24.90;16.40;;;;;;5128201;27;46424;-81
2023/09/04 12:34:01;;;;;;;6.30;2.90;;;24.80;15.70;;;;;;5116569;27;46593;-81
2023/09/04 12:36:29;;;;;;;5.30;3.17;;;24.80;15.90;;;;;;5126362;27;46738;-81
2023/09/04 12:38:54;;;;;;;6.30;2.93;;;24.80;16.10;;;;;;5127229;27;45939;-83
2023/09/04 12:41:20;;;;;;;6.33;3.67;;;25.20;16.60;;;;;;5118415;27;46510;-80